Time;durP1;ratioP1;P1;durP2;ratioP2;P2;SDS_P1;SDS_P2;PMS_P1;PMS_P2;Temp;Humidity;BMP_temperature;BMP_pressure;BME280_temperature;BME280_humidity;BME280_pressure;Samples;Min_cycle;Max_cycle;Signal;HPM_P1;HPM_P2
2020/12/25 00:00:40;;;;;;;0.00;0.00;;;7.50;69.30;;;;;;6267336;28;20353;-75
2020/12/25 00:03:42;;;;;;;0.10;0.08;;;7.60;69.30;;;;;;6266005;28;20032;-76
2020/12/25 00:06:43;;;;;;;0.10;0.10;;;7.60;69.20;;;;;;6265848;28;20033;-75
2020/12/25 00:09:43;;;;;;;0.28;0.13;;;7.70;69.10;;;;;;6265973;28;20036;-75
2020/12/25 00:12:44;;;;;;;0.10;0.10;;;7.70;68.90;;;;;;6265692;28;20052;-76
2020/12/25 00:15:47;;;;;;;0.00;0.00;;;7.60;68.50;;;;;;6267333;28;20031;-75
2020/12/25 00:18:48;;;;;;;1.75;0.08;;;7.80;68.40;;;;;;6266221;28;20028;-74
2020/12/25 00:21:49;;;;;;;0.00;0.00;;;7.80;68.10;;;;;;6266168;28;20082;-76
2020/12/25 00:24:50;;;;;;;0.00;0.00;;;7.80;68.00;;;;;;6265703;28;20040;-74
2020/12/25 00:27:51;;;;;;;0.20;0.10;;;7.90;67.90;;;;;;6266932;28;20025;-74
2020/12/25 00:30:52;;;;;;;0.10;0.10;;;8.00;67.70;;;;;;6269581;28;20249;-75
2020/12/25 00:33:53;;;;;;;0.30;0.03;;;8.00;67.40;;;;;;6273746;28;20503;-75
2020/12/25 00:36:54;;;;;;;0.00;0.00;;;8.00;67.10;;;;;;6283568;28;20029;-75
2020/12/25 00:39:55;;;;;;;0.17;0.05;;;8.10;67.00;;;;;;6286171;28;20037;-74
2020/12/25 00:42:56;;;;;;;0.00;0.00;;;8.10;66.80;;;;;;6273135;28;20647;-75
2020/12/25 00:45:57;;;;;;;0.00;0.00;;;8.10;66.70;;;;;;6266686;28;20072;-77
2020/12/25 00:48:58;;;;;;;1.52;0.55;;;8.20;66.60;;;;;;6265177;28;20402;-76
2020/12/25 00:51:59;;;;;;;0.20;0.10;;;8.20;66.50;;;;;;6248846;28;20454;-76
2020/12/25 00:55:00;;;;;;;0.10;0.00;;;8.30;66.10;;;;;;6264932;28;20353;-77
2020/12/25 00:58:03;;;;;;;0.00;0.00;;;8.30;65.90;;;;;;6265171;28;20052;-76
2020/12/25 01:01:06;;;;;;;0.10;0.00;;;8.40;65.80;;;;;;6248412;28;20120;-75
2020/12/25 01:04:07;;;;;;;0.60;0.20;;;8.40;65.50;;;;;;6264991;28;20029;-76
2020/12/25 01:07:08;;;;;;;0.00;0.00;;;8.40;65.30;;;;;;6266374;28;20021;-74
2020/12/25 01:10:09;;;;;;;0.00;0.00;;;8.40;65.20;;;;;;6264816;28;20040;-74
2020/12/25 01:13:10;;;;;;;0.00;0.00;;;8.50;65.10;;;;;;6265635;28;20588;-74
2020/12/25 01:16:15;;;;;;;0.00;0.00;;;8.50;65.00;;;;;;6248645;28;20057;-75
2020/12/25 01:19:16;;;;;;;0.17;0.08;;;8.50;65.00;;;;;;6265633;28;20032;-75
2020/12/25 01:22:16;;;;;;;0.00;0.00;;;8.50;64.70;;;;;;6265904;28;20033;-74
2020/12/25 01:25:17;;;;;;;0.68;0.10;;;8.40;64.70;;;;;;6265916;28;20021;-74
2020/12/25 01:28:18;;;;;;;0.00;0.00;;;8.40;64.70;;;;;;6265127;28;20036;-74
2020/12/25 01:31:19;;;;;;;0.00;0.00;;;8.40;64.60;;;;;;6264727;28;20044;-74
2020/12/25 01:34:23;;;;;;;0.05;0.05;;;8.40;64.70;;;;;;6266010;28;20025;-75
2020/12/25 01:37:26;;;;;;;0.17;0.08;;;8.40;64.70;;;;;;6267770;28;20040;-75
2020/12/25 01:40:27;;;;;;;0.00;0.00;;;8.50;64.90;;;;;;6269374;28;20037;-75
2020/12/25 01:43:28;;;;;;;0.32;0.22;;;8.50;64.70;;;;;;6269029;28;20086;-75
2020/12/25 01:46:29;;;;;;;0.03;0.03;;;8.40;64.50;;;;;;6252413;28;20033;-75
2020/12/25 01:49:30;;;;;;;0.10;0.10;;;8.50;64.50;;;;;;6270422;28;20021;-74
2020/12/25 01:52:32;;;;;;;0.10;0.10;;;8.50;64.70;;;;;;6269104;28;20045;-75
2020/12/25 01:55:33;;;;;;;0.00;0.00;;;8.60;64.80;;;;;;6279012;28;20021;-74
2020/12/25 01:58:36;;;;;;;0.00;0.00;;;8.60;64.40;;;;;;6278180;28;20063;-74
2020/12/25 02:01:37;;;;;;;0.32;0.17;;;8.60;64.20;;;;;;6278413;28;20035;-76
2020/12/25 02:04:38;;;;;;;0.00;0.00;;;8.60;64.10;;;;;;6256436;28;20105;-73
2020/12/25 02:07:38;;;;;;;0.10;0.10;;;8.60;64.00;;;;;;6270301;28;20041;-75
2020/12/25 02:10:40;;;;;;;0.00;0.00;;;8.60;63.90;;;;;;6252666;28;20082;-74
2020/12/25 02:13:41;;;;;;;0.20;0.10;;;8.60;63.80;;;;;;6269965;28;20684;-75
2020/12/25 02:16:41;;;;;;;0.00;0.00;;;8.50;64.00;;;;;;6268741;28;20025;-75
2020/12/25 02:19:42;;;;;;;0.00;0.00;;;8.50;64.20;;;;;;6269792;28;20475;-75
2020/12/25 02:22:43;;;;;;;0.10;0.10;;;8.50;64.30;;;;;;6245998;28;20045;-75
2020/12/25 02:25:49;;;;;;;0.05;0.05;;;8.60;64.50;;;;;;6227840;28;20021;-76
2020/12/25 02:28:52;;;;;;;0.00;0.00;;;8.60;64.20;;;;;;6228911;28;20049;-77
2020/12/25 02:31:59;;;;;;;0.00;0.00;;;8.60;64.30;;;;;;6243750;28;20037;-75
2020/12/25 02:35:04;;;;;;;0.00;0.00;;;8.60;64.20;;;;;;6211259;28;20037;-76
2020/12/25 02:38:05;;;;;;;0.10;0.10;;;8.70;64.20;;;;;;6244849;28;20037;-76
2020/12/25 02:41:06;;;;;;;0.10;0.10;;;8.70;64.10;;;;;;6227044;28;20029;-75
2020/12/25 02:44:08;;;;;;;0.40;0.15;;;8.70;63.90;;;;;;6243362;28;20053;-75
2020/12/25 02:47:10;;;;;;;0.20;0.15;;;8.70;64.00;;;;;;6243642;28;20414;-75
2020/12/25 02:50:11;;;;;;;0.20;0.20;;;8.70;64.10;;;;;;6242783;28;20110;-75
2020/12/25 02:53:12;;;;;;;0.75;0.20;;;8.70;64.10;;;;;;6226243;28;20451;-75
2020/12/25 02:56:17;;;;;;;0.40;0.20;;;8.70;64.10;;;;;;6243273;28;20022;-75
2020/12/25 02:59:18;;;;;;;0.30;0.20;;;8.80;64.20;;;;;;6243245;28;20041;-75
2020/12/25 03:02:19;;;;;;;0.10;0.10;;;8.80;64.10;;;;;;6226303;28;20124;-76
2020/12/25 03:05:20;;;;;;;0.10;0.10;;;8.90;64.00;;;;;;6243088;28;20045;-75
2020/12/25 03:08:21;;;;;;;0.20;0.20;;;8.90;63.90;;;;;;6226028;28;20041;-76
2020/12/25 03:11:21;;;;;;;0.40;0.22;;;9.00;63.80;;;;;;6242892;28;20029;-75
2020/12/25 03:14:22;;;;;;;0.10;0.10;;;9.00;63.70;;;;;;6242601;28;20029;-75
2020/12/25 03:17:23;;;;;;;0.45;0.20;;;9.00;63.50;;;;;;6242982;28;20461;-75
2020/12/25 03:20:25;;;;;;;0.10;0.10;;;9.00;63.40;;;;;;6242702;28;20454;-75
2020/12/25 03:23:26;;;;;;;0.10;0.10;;;9.00;63.30;;;;;;6226075;28;20040;-75
2020/12/25 03:26:27;;;;;;;0.20;0.20;;;9.00;63.40;;;;;;6242366;28;20363;-76
2020/12/25 03:29:29;;;;;;;0.45;0.38;;;9.10;63.30;;;;;;6225707;28;20060;-75
2020/12/25 03:32:30;;;;;;;0.63;0.63;;;9.10;63.20;;;;;;6241891;28;20053;-75
2020/12/25 03:35:30;;;;;;;0.20;0.20;;;9.10;63.10;;;;;;6242005;28;20715;-74
2020/12/25 03:38:31;;;;;;;0.40;0.25;;;9.10;63.10;;;;;;6241793;28;20033;-75
2020/12/25 03:41:32;;;;;;;0.32;0.32;;;9.10;63.20;;;;;;6241782;28;20033;-75
2020/12/25 03:44:33;;;;;;;0.20;0.20;;;9.10;63.00;;;;;;6225372;28;20505;-75
2020/12/25 03:47:34;;;;;;;0.40;0.38;;;9.10;62.90;;;;;;6241675;28;20091;-77
2020/12/25 03:50:36;;;;;;;0.52;0.30;;;9.10;63.00;;;;;;6242010;28;20045;-77
2020/12/25 03:53:36;;;;;;;0.13;0.13;;;9.10;63.10;;;;;;6225071;28;20042;-74
2020/12/25 03:56:37;;;;;;;0.30;0.30;;;9.10;63.20;;;;;;6241655;28;20199;-75
2020/12/25 03:59:38;;;;;;;0.30;0.30;;;9.10;63.20;;;;;;6241349;28;20513;-75
2020/12/25 04:02:39;;;;;;;0.98;0.45;;;9.00;63.10;;;;;;6241288;28;20029;-75
2020/12/25 04:05:40;;;;;;;0.82;0.70;;;9.00;63.10;;;;;;6241198;28;20025;-77
2020/12/25 04:08:44;;;;;;;3.05;0.93;;;9.00;62.90;;;;;;6241090;28;20040;-74
2020/12/25 04:11:45;;;;;;;0.47;0.47;;;9.00;62.80;;;;;;6224669;28;20305;-76
2020/12/25 04:14:45;;;;;;;0.90;0.47;;;9.00;62.80;;;;;;6241025;28;20026;-75
2020/12/25 04:17:46;;;;;;;0.65;0.55;;;9.00;62.90;;;;;;6241191;28;20574;-74
2020/12/25 04:20:47;;;;;;;1.40;0.90;;;8.90;62.90;;;;;;6224331;28;20043;-75
2020/12/25 04:23:48;;;;;;;0.65;0.50;;;8.90;62.80;;;;;;6240814;28;20417;-74
2020/12/25 04:26:49;;;;;;;0.50;0.50;;;8.90;63.00;;;;;;6224696;28;20277;-75
2020/12/25 04:29:50;;;;;;;0.30;0.30;;;8.90;62.90;;;;;;6241568;28;20525;-75
2020/12/25 04:32:51;;;;;;;0.57;0.50;;;9.00;63.00;;;;;;6241507;28;20028;-75
2020/12/25 04:35:52;;;;;;;0.80;0.52;;;8.90;62.90;;;;;;6242019;28;20091;-75
2020/12/25 04:38:53;;;;;;;1.08;0.98;;;8.90;63.20;;;;;;6224282;28;20029;-75
2020/12/25 04:41:56;;;;;;;0.50;0.50;;;8.90;63.30;;;;;;6240752;28;20025;-75
2020/12/25 04:44:57;;;;;;;0.70;0.65;;;8.90;63.50;;;;;;6240730;28;20088;-76
2020/12/25 04:47:58;;;;;;;2.47;1.10;;;8.80;63.60;;;;;;6240424;28;20029;-76
2020/12/25 04:50:59;;;;;;;3.08;1.02;;;8.70;64.00;;;;;;6241532;28;20030;-75
2020/12/25 04:54:00;;;;;;;0.75;0.63;;;8.70;64.20;;;;;;6240060;28;20634;-75
2020/12/25 04:57:02;;;;;;;1.50;1.20;;;8.70;64.40;;;;;;6240665;28;20129;-75
2020/12/25 05:00:21;;;;;;;1.38;1.00;;;8.70;64.20;;;;;;6241381;28;20082;-76
2020/12/25 05:03:22;;;;;;;;;;;8.60;64.50;;;;;;6240737;28;20061;-75
2020/12/25 05:06:24;;;;;;;1.45;1.15;;;8.60;64.70;;;;;;6241552;28;19920;-75
2020/12/25 05:09:26;;;;;;;1.33;1.00;;;8.60;65.00;;;;;;6242045;28;20041;-74
2020/12/25 05:12:27;;;;;;;1.67;1.10;;;8.50;65.10;;;;;;6244201;28;20039;-74
2020/12/25 05:15:29;;;;;;;2.00;1.15;;;8.50;65.20;;;;;;6247374;28;20017;-75
2020/12/25 05:18:31;;;;;;;3.25;1.38;;;8.50;65.40;;;;;;6246184;28;20021;-76
2020/12/25 05:21:38;;;;;;;1.20;0.90;;;8.50;65.50;;;;;;6246401;28;20026;-76
2020/12/25 05:24:39;;;;;;;1.30;1.20;;;8.50;65.40;;;;;;6246015;28;20025;-75
2020/12/25 05:27:44;;;;;;;1.60;1.15;;;8.50;65.10;;;;;;6245100;28;20461;-77
2020/12/25 05:30:45;;;;;;;0.90;0.80;;;8.50;65.10;;;;;;6228343;28;20410;-76
2020/12/25 05:33:50;;;;;;;1.75;1.13;;;8.40;65.40;;;;;;6245130;28;20068;-75
2020/12/25 05:36:52;;;;;;;2.72;1.00;;;8.50;65.30;;;;;;6245710;28;20486;-76
2020/12/25 05:39:53;;;;;;;0.70;0.60;;;8.50;65.20;;;;;;6245157;28;20228;-76
2020/12/25 05:42:54;;;;;;;1.48;1.13;;;8.60;65.10;;;;;;6244321;28;20069;-74
2020/12/25 05:45:55;;;;;;;0.73;0.70;;;8.60;64.70;;;;;;6244608;28;20068;-74
2020/12/25 05:48:58;;;;;;;1.17;0.85;;;8.60;64.00;;;;;;6245597;28;20022;-74
2020/12/25 05:51:59;;;;;;;1.17;0.80;;;8.60;63.80;;;;;;6244456;28;20039;-74
2020/12/25 05:55:02;;;;;;;1.63;1.00;;;8.70;63.40;;;;;;6245764;28;20068;-74
2020/12/25 05:58:04;;;;;;;1.35;0.93;;;8.70;63.20;;;;;;6227869;28;20104;-76
2020/12/25 06:01:08;;;;;;;0.88;0.80;;;8.80;63.10;;;;;;6245776;28;20605;-77
2020/12/25 06:04:10;;;;;;;0.40;0.28;;;8.80;62.60;;;;;;6245219;28;20029;-74
2020/12/25 06:07:15;;;;;;;0.40;0.35;;;8.90;61.50;;;;;;6244601;28;20029;-76
2020/12/25 06:10:18;;;;;;;1.15;1.00;;;8.90;61.40;;;;;;6243942;28;20045;-74
2020/12/25 06:13:19;;;;;;;0.95;0.68;;;8.90;61.50;;;;;;6245036;28;20026;-74
2020/12/25 06:16:21;;;;;;;1.42;0.65;;;8.80;61.60;;;;;;6244496;28;20022;-75
2020/12/25 06:19:42;;;;;;;1.83;0.70;;;8.90;61.30;;;;;;6243954;28;20026;-75
2020/12/25 06:22:45;;;;;;;0.60;0.60;;;8.80;61.10;;;;;;6226103;28;20037;-75
2020/12/25 06:25:50;;;;;;;0.73;0.32;;;8.80;61.00;;;;;;6244269;28;20454;-74
2020/12/25 06:28:52;;;;;;;2.28;0.80;;;8.80;61.20;;;;;;6244095;28;20119;-77
2020/12/25 06:31:55;;;;;;;0.70;0.60;;;8.80;61.40;;;;;;6244664;28;20025;-75
2020/12/25 06:34:59;;;;;;;0.88;0.70;;;8.70;61.50;;;;;;6244709;28;20022;-75
2020/12/25 06:38:05;;;;;;;0.60;0.60;;;8.70;61.90;;;;;;6244957;28;20087;-75
2020/12/25 06:41:06;;;;;;;0.30;0.30;;;8.50;62.30;;;;;;6244090;28;20089;-75
2020/12/25 06:44:14;;;;;;;0.60;0.40;;;8.40;62.80;;;;;;6243209;28;20033;-75
2020/12/25 06:47:27;;;;;;;2.67;0.80;;;8.30;63.20;;;;;;6243440;28;20073;-75
2020/12/25 06:50:28;;;;;;;1.52;0.77;;;8.10;63.70;;;;;;6244284;28;20053;-75
2020/12/25 06:53:39;;;;;;;0.38;0.38;;;8.10;64.40;;;;;;6244890;28;20080;-75
2020/12/25 06:56:41;;;;;;;5.95;0.70;;;7.90;64.80;;;;;;6248338;28;20401;-75
2020/12/25 06:59:42;;;;;;;1.75;0.50;;;7.80;65.20;;;;;;6255016;28;20013;-75
2020/12/25 07:02:44;;;;;;;0.60;0.60;;;7.80;65.90;;;;;;6249201;28;20040;-75
2020/12/25 07:05:48;;;;;;;1.27;0.68;;;7.70;66.40;;;;;;6266075;28;20045;-75
2020/12/25 07:08:52;;;;;;;1.05;0.43;;;7.60;66.60;;;;;;6242468;28;20125;-74
2020/12/25 07:11:53;;;;;;;0.60;0.60;;;7.60;66.80;;;;;;6254800;28;20057;-75
2020/12/25 07:14:54;;;;;;;0.52;0.52;;;7.50;66.60;;;;;;6245329;28;20078;-75
2020/12/25 07:17:55;;;;;;;0.50;0.50;;;7.50;66.60;;;;;;6243697;28;20116;-75
2020/12/25 07:21:00;;;;;;;1.75;0.52;;;7.50;66.60;;;;;;6242366;28;20033;-76
2020/12/25 07:24:01;;;;;;;0.32;0.20;;;7.40;66.70;;;;;;6226192;28;20534;-75
2020/12/25 07:27:02;;;;;;;2.22;0.70;;;7.40;66.60;;;;;;6243446;28;20120;-75
2020/12/25 07:30:04;;;;;;;0.88;0.70;;;7.40;66.80;;;;;;6225752;28;20125;-74
2020/12/25 07:33:06;;;;;;;0.63;0.50;;;7.30;67.00;;;;;;6243157;28;20427;-74
2020/12/25 07:36:11;;;;;;;0.88;0.70;;;7.30;66.90;;;;;;6241515;28;20032;-74
2020/12/25 07:39:12;;;;;;;0.30;0.20;;;7.30;67.00;;;;;;6225854;28;20044;-74
2020/12/25 07:42:13;;;;;;;2.03;0.80;;;7.30;66.90;;;;;;6243060;28;20044;-75
2020/12/25 07:45:14;;;;;;;0.45;0.35;;;7.30;66.60;;;;;;6225255;28;20029;-75
2020/12/25 07:48:15;;;;;;;0.80;0.70;;;7.30;66.40;;;;;;6242508;28;20091;-74
2020/12/25 07:51:17;;;;;;;0.43;0.30;;;7.40;66.30;;;;;;6242140;28;20447;-74
2020/12/25 07:54:19;;;;;;;1.33;0.60;;;7.40;66.00;;;;;;6241766;28;20048;-74
2020/12/25 07:57:21;;;;;;;1.85;0.47;;;7.40;65.90;;;;;;6241785;28;20026;-74
2020/12/25 08:00:22;;;;;;;1.13;0.63;;;7.50;65.70;;;;;;6241715;28;20120;-76
2020/12/25 08:03:24;;;;;;;1.90;0.60;;;7.50;65.50;;;;;;6241620;28;20121;-74
2020/12/25 08:06:27;;;;;;;0.82;0.70;;;7.60;65.40;;;;;;6241441;28;20048;-74
2020/12/25 08:09:34;;;;;;;1.10;0.60;;;7.60;65.10;;;;;;6241251;28;20402;-76
2020/12/25 08:12:35;;;;;;;2.15;0.52;;;7.60;64.90;;;;;;6241633;28;20029;-75
2020/12/25 08:15:37;;;;;;;1.08;0.65;;;7.60;64.90;;;;;;6224965;28;20036;-76
2020/12/25 08:18:38;;;;;;;0.45;0.45;;;7.50;64.90;;;;;;6241224;28;20462;-74
2020/12/25 08:21:40;;;;;;;1.58;0.93;;;7.50;65.30;;;;;;6240940;28;20029;-74
2020/12/25 08:24:40;;;;;;;0.60;0.60;;;7.50;65.20;;;;;;6241425;28;20362;-74
2020/12/25 08:27:42;;;;;;;0.17;0.10;;;7.50;65.30;;;;;;6241184;28;20049;-75
2020/12/25 08:30:42;;;;;;;0.20;0.20;;;7.50;65.50;;;;;;6241605;28;20118;-75
2020/12/25 08:33:54;;;;;;;0.30;0.30;;;7.50;65.50;;;;;;6241128;28;20390;-75
2020/12/25 08:36:59;;;;;;;2.70;1.00;;;7.50;65.80;;;;;;6224883;28;20118;-75
2020/12/25 08:40:33;;;;;;;0.28;0.20;;;7.50;66.00;;;;;;6240729;28;20098;-75
2020/12/25 08:43:34;;;;;;;1.35;0.60;;;7.50;66.00;;;;;;6241809;28;20109;-76
2020/12/25 08:46:35;;;;;;;0.75;0.50;;;7.50;65.90;;;;;;6240791;28;20185;-75
2020/12/25 08:49:36;;;;;;;0.70;0.40;;;7.60;65.80;;;;;;6240539;28;20029;-77
2020/12/25 08:52:37;;;;;;;0.20;0.10;;;7.60;65.50;;;;;;6240047;28;20057;-75
2020/12/25 08:55:38;;;;;;;0.30;0.30;;;7.60;65.30;;;;;;6241490;28;20036;-76
2020/12/25 08:58:53;;;;;;;0.77;0.50;;;7.70;65.10;;;;;;6241303;28;20029;-76
2020/12/25 09:01:55;;;;;;;0.10;0.10;;;7.70;64.80;;;;;;6241233;28;20530;-75
2020/12/25 09:04:56;;;;;;;3.28;0.38;;;7.80;64.70;;;;;;6240267;28;20029;-75
2020/12/25 09:07:56;;;;;;;0.52;0.30;;;7.80;64.50;;;;;;6240278;28;20433;-75
2020/12/25 09:10:57;;;;;;;1.67;0.40;;;7.90;64.10;;;;;;6241182;28;20087;-75
2020/12/25 09:13:58;;;;;;;1.33;0.50;;;7.90;63.60;;;;;;6240018;28;20036;-76
2020/12/25 09:16:59;;;;;;;0.20;0.20;;;8.00;63.40;;;;;;6223983;28;20084;-75
2020/12/25 09:20:00;;;;;;;0.10;0.10;;;8.00;63.30;;;;;;6240319;28;20029;-76
2020/12/25 09:23:01;;;;;;;1.85;0.40;;;8.00;63.20;;;;;;6240059;28;20469;-75
2020/12/25 09:26:03;;;;;;;0.95;0.47;;;8.10;63.40;;;;;;6239843;28;20422;-75
2020/12/25 09:29:04;;;;;;;0.40;0.40;;;8.10;63.20;;;;;;6240255;28;20025;-75
2020/12/25 09:32:05;;;;;;;1.20;0.50;;;8.20;63.20;;;;;;6240093;28;20045;-75
2020/12/25 09:35:06;;;;;;;0.60;0.35;;;8.20;63.20;;;;;;6223733;28;20099;-76
2020/12/25 09:38:07;;;;;;;1.98;0.40;;;8.30;63.10;;;;;;6239931;28;20047;-76
2020/12/25 09:41:07;;;;;;;0.45;0.45;;;8.30;63.10;;;;;;6223826;28;20061;-76
2020/12/25 09:44:08;;;;;;;0.43;0.40;;;8.40;63.20;;;;;;6239922;28;20079;-75
2020/12/25 09:47:09;;;;;;;0.40;0.40;;;8.30;62.70;;;;;;6223958;28;20052;-75
2020/12/25 09:50:10;;;;;;;0.55;0.52;;;8.30;63.00;;;;;;6223444;28;20038;-74
2020/12/25 09:53:11;;;;;;;0.93;0.70;;;8.30;63.00;;;;;;6223043;28;20052;-77
2020/12/25 09:56:15;;;;;;;0.32;0.32;;;8.20;63.00;;;;;;6239877;28;20044;-74
2020/12/25 09:59:16;;;;;;;0.77;0.50;;;8.20;62.90;;;;;;6227468;28;20114;-75
2020/12/25 10:02:18;;;;;;;0.90;0.30;;;8.20;63.70;;;;;;6245285;28;20415;-75
2020/12/25 10:05:18;;;;;;;1.05;0.57;;;8.30;63.10;;;;;;6245601;28;20025;-75
2020/12/25 10:08:19;;;;;;;1.50;0.45;;;8.20;63.20;;;;;;6244064;28;20513;-76
2020/12/25 10:11:20;;;;;;;0.40;0.40;;;8.20;63.20;;;;;;6244891;28;20432;-75
2020/12/25 10:14:23;;;;;;;0.63;0.45;;;8.20;63.20;;;;;;6244704;28;20033;-73
2020/12/25 10:17:25;;;;;;;0.35;0.30;;;8.20;63.30;;;;;;6243997;28;20026;-74
2020/12/25 10:20:26;;;;;;;0.77;0.50;;;8.20;63.70;;;;;;6243866;28;20033;-76
2020/12/25 10:23:27;;;;;;;0.63;0.52;;;8.10;63.90;;;;;;6244180;28;20066;-76
2020/12/25 10:26:27;;;;;;;1.65;0.55;;;8.00;64.30;;;;;;6227834;28;20109;-75
2020/12/25 10:29:28;;;;;;;0.50;0.47;;;8.00;64.50;;;;;;6244262;28;20029;-75
2020/12/25 10:32:29;;;;;;;1.15;0.90;;;7.90;65.00;;;;;;6244201;28;20410;-76
2020/12/25 10:35:31;;;;;;;0.22;0.22;;;7.80;65.30;;;;;;6244122;28;20446;-76
2020/12/25 10:38:34;;;;;;;0.90;0.38;;;7.80;65.80;;;;;;6227367;28;20383;-76
2020/12/25 10:41:34;;;;;;;0.55;0.55;;;7.70;65.90;;;;;;6243416;28;20026;-76
2020/12/25 10:44:36;;;;;;;0.63;0.43;;;7.60;66.20;;;;;;6226574;28;20037;-75
2020/12/25 10:47:37;;;;;;;0.57;0.50;;;7.60;66.70;;;;;;6244058;28;20022;-75
2020/12/25 10:50:38;;;;;;;1.83;0.77;;;7.50;66.90;;;;;;6226602;28;20106;-76
2020/12/25 10:53:41;;;;;;;0.85;0.35;;;7.50;67.30;;;;;;6226946;28;20192;-77
2020/12/25 10:56:42;;;;;;;1.30;0.75;;;7.40;67.50;;;;;;6243920;28;20021;-76
2020/12/25 10:59:43;;;;;;;0.70;0.40;;;7.40;67.40;;;;;;6243642;28;20033;-77
2020/12/25 11:02:46;;;;;;;0.75;0.70;;;7.30;67.70;;;;;;6244364;28;20104;-75
2020/12/25 11:05:48;;;;;;;0.20;0.20;;;7.30;68.00;;;;;;6227390;28;20111;-75
2020/12/25 11:08:49;;;;;;;9.88;0.50;;;7.30;68.20;;;;;;6243150;28;20396;-75
2020/12/25 11:11:51;;;;;;;0.90;0.60;;;7.30;68.40;;;;;;6210691;28;20037;-74
2020/12/25 11:14:52;;;;;;;0.28;0.28;;;7.10;68.30;;;;;;6227086;28;20502;-76
2020/12/25 11:17:54;;;;;;;0.35;0.30;;;7.20;68.50;;;;;;6243396;28;20022;-76
2020/12/25 11:20:55;;;;;;;0.40;0.17;;;7.20;68.40;;;;;;6244066;28;20033;-76
2020/12/25 11:23:57;;;;;;;0.50;0.50;;;7.20;68.40;;;;;;6244176;28;20041;-75
2020/12/25 11:27:08;;;;;;;0.40;0.40;;;7.30;68.40;;;;;;6243385;28;20529;-75
2020/12/25 11:30:20;;;;;;;1.33;0.75;;;7.30;68.30;;;;;;6242952;28;20040;-77
2020/12/25 11:33:22;;;;;;;3.28;0.88;;;7.40;67.90;;;;;;6226286;28;20033;-75
2020/12/25 11:36:25;;;;;;;1.67;0.88;;;7.50;67.60;;;;;;6242750;28;20030;-75
2020/12/25 11:39:26;;;;;;;1.85;0.75;;;7.50;67.40;;;;;;6243552;28;20029;-76
2020/12/25 11:42:27;;;;;;;0.70;0.50;;;7.50;66.80;;;;;;6242960;28;20040;-76
2020/12/25 11:49:10;;;;;;;2.10;0.75;;;7.50;66.60;;;;;;6242448;28;20032;-76
2020/12/25 11:52:11;;;;;;;0.30;0.30;;;7.50;66.90;;;;;;6224875;28;20037;-75
2020/12/25 11:55:12;;;;;;;0.10;0.10;;;7.40;67.20;;;;;;6242007;28;20028;-75
2020/12/25 11:58:12;;;;;;;0.30;0.30;;;7.30;67.20;;;;;;6242120;28;20507;-76
2020/12/25 12:01:14;;;;;;;0.60;0.30;;;7.30;67.40;;;;;;6226169;28;20041;-75
2020/12/25 12:04:18;;;;;;;0.75;0.15;;;7.20;67.90;;;;;;6225007;28;20042;-76
2020/12/25 12:07:19;;;;;;;0.80;0.45;;;7.20;68.00;;;;;;6241580;28;20064;-75
2020/12/25 12:10:23;;;;;;;1.42;0.55;;;7.20;68.60;;;;;;6224878;28;20029;-76
2020/12/25 12:13:24;;;;;;;2.95;1.08;;;7.30;67.50;;;;;;6225150;28;20025;-75
2020/12/25 12:16:25;;;;;;;4.50;1.33;;;7.30;67.00;;;;;;6241657;28;20034;-76
2020/12/25 12:19:26;;;;;;;4.15;1.42;;;7.50;66.70;;;;;;6225138;28;20039;-75
2020/12/25 12:22:26;;;;;;;1.30;0.77;;;7.60;66.30;;;;;;6224811;28;20044;-75
2020/12/25 12:25:28;;;;;;;3.13;1.13;;;7.80;65.60;;;;;;6241188;28;20128;-76
2020/12/25 12:28:31;;;;;;;4.57;1.10;;;7.90;65.10;;;;;;6240841;28;20129;-75
2020/12/25 12:31:36;;;;;;;5.30;0.90;;;8.00;64.50;;;;;;6240847;28;20463;-75
2020/12/25 12:34:37;;;;;;;0.70;0.70;;;8.00;64.10;;;;;;6240972;28;20389;-75
2020/12/25 12:37:38;;;;;;;1.75;1.35;;;8.10;63.50;;;;;;6240714;28;20423;-76
2020/12/25 12:40:39;;;;;;;2.58;0.93;;;8.20;63.50;;;;;;6241309;28;20107;-76
2020/12/25 12:43:40;;;;;;;1.00;0.88;;;8.20;63.70;;;;;;6240933;28;20485;-76
2020/12/25 12:46:41;;;;;;;0.30;0.30;;;8.20;63.70;;;;;;6241021;28;20029;-74
2020/12/25 12:49:43;;;;;;;0.63;0.50;;;8.20;63.80;;;;;;6240919;28;20025;-75
2020/12/25 12:52:44;;;;;;;3.40;0.73;;;8.00;63.80;;;;;;6241693;28;20037;-74
2020/12/25 12:55:45;;;;;;;1.13;0.47;;;7.90;64.30;;;;;;6226034;28;20030;-76
2020/12/25 12:58:45;;;;;;;0.68;0.68;;;7.70;64.90;;;;;;6240962;28;20030;-75
2020/12/25 13:01:46;;;;;;;0.60;0.52;;;7.70;65.60;;;;;;6240657;28;20037;-75
2020/12/25 13:04:48;;;;;;;0.82;0.63;;;7.40;66.10;;;;;;6241305;28;20025;-75
2020/12/25 13:07:49;;;;;;;1.85;0.82;;;7.20;66.60;;;;;;6224600;28;20030;-75
2020/12/25 13:10:49;;;;;;;3.78;0.80;;;7.20;67.10;;;;;;6226164;28;20169;-76
2020/12/25 13:13:50;;;;;;;0.93;0.60;;;7.20;67.50;;;;;;6242447;28;20076;-75
2020/12/25 13:16:52;;;;;;;0.55;0.50;;;7.10;67.80;;;;;;6224240;28;20029;-76
2020/12/25 13:19:53;;;;;;;1.98;0.70;;;7.10;68.00;;;;;;6241651;28;20483;-75
2020/12/25 13:22:54;;;;;;;0.57;0.55;;;7.10;67.90;;;;;;6225225;28;20234;-76
2020/12/25 13:25:54;;;;;;;1.13;0.45;;;7.10;68.00;;;;;;6226427;28;20033;-75
2020/12/25 13:28:55;;;;;;;1.17;0.63;;;7.10;68.10;;;;;;6249177;28;20029;-76
2020/12/25 13:31:56;;;;;;;1.73;0.80;;;7.20;68.30;;;;;;6252612;28;20406;-75
2020/12/25 13:34:57;;;;;;;6.55;2.50;;;7.20;68.10;;;;;;6264740;28;20029;-76
2020/12/25 13:37:58;;;;;;;2.25;1.08;;;7.10;68.00;;;;;;6268602;28;20048;-76
2020/12/25 13:40:59;;;;;;;1.00;0.80;;;7.10;68.20;;;;;;6260824;28;20037;-75
2020/12/25 13:44:00;;;;;;;1.00;0.43;;;7.10;68.40;;;;;;6249611;28;20563;-75
2020/12/25 13:47:01;;;;;;;0.63;0.50;;;7.00;68.40;;;;;;6245113;28;20117;-76
2020/12/25 13:50:04;;;;;;;0.30;0.30;;;7.00;68.50;;;;;;6244979;28;20030;-76
2020/12/25 13:53:04;;;;;;;1.20;0.65;;;7.00;68.70;;;;;;6245338;28;20041;-74
2020/12/25 13:56:06;;;;;;;0.30;0.30;;;7.10;68.70;;;;;;6245756;28;20029;-76
2020/12/25 13:59:06;;;;;;;1.60;0.80;;;7.10;68.80;;;;;;6244746;28;20036;-76
2020/12/25 14:02:09;;;;;;;0.82;0.60;;;7.10;68.60;;;;;;6227742;28;20069;-77
2020/12/25 14:05:10;;;;;;;0.68;0.40;;;7.30;68.40;;;;;;6244671;28;20127;-75
2020/12/25 14:08:11;;;;;;;0.93;0.60;;;7.40;67.50;;;;;;6227553;28;20506;-75
2020/12/25 14:11:12;;;;;;;0.50;0.43;;;7.60;66.20;;;;;;6227929;28;20037;-75
2020/12/25 14:14:12;;;;;;;0.57;0.20;;;7.70;65.40;;;;;;6245604;28;20108;-76
2020/12/25 14:17:13;;;;;;;0.35;0.35;;;7.90;65.00;;;;;;6243990;28;20149;-75
2020/12/25 14:20:14;;;;;;;0.52;0.43;;;8.00;64.70;;;;;;6245308;28;20096;-75
2020/12/25 14:23:16;;;;;;;1.60;0.88;;;8.10;63.70;;;;;;6245105;28;20044;-75
2020/12/25 14:26:17;;;;;;;2.85;0.75;;;8.10;62.40;;;;;;6244012;28;20091;-75
2020/12/25 14:29:18;;;;;;;0.60;0.60;;;8.10;61.90;;;;;;6243629;28;20486;-75
2020/12/25 14:32:18;;;;;;;0.95;0.95;;;8.20;62.30;;;;;;6244547;28;20025;-75
2020/12/25 14:35:20;;;;;;;1.70;1.05;;;8.20;62.70;;;;;;6244591;28;20026;-75
2020/12/25 14:38:20;;;;;;;3.05;1.17;;;8.20;62.80;;;;;;6243540;28;20034;-75
2020/12/25 14:41:22;;;;;;;1.98;1.20;;;8.30;62.90;;;;;;6243458;28;20036;-75
2020/12/25 14:44:23;;;;;;;1.35;0.80;;;8.30;63.00;;;;;;6225971;28;20044;-75
2020/12/25 14:47:25;;;;;;;1.45;0.80;;;8.30;63.00;;;;;;6243294;28;20061;-75
2020/12/25 14:50:26;;;;;;;1.42;0.82;;;8.10;62.70;;;;;;6243610;28;20133;-74
2020/12/25 14:53:27;;;;;;;0.50;0.50;;;8.10;63.20;;;;;;6243538;28;20521;-75
2020/12/25 14:56:28;;;;;;;1.48;0.70;;;8.00;63.30;;;;;;6228069;28;20029;-75
2020/12/25 14:59:29;;;;;;;1.08;0.50;;;8.00;63.60;;;;;;6243690;28;20285;-74
2020/12/25 15:02:30;;;;;;;0.98;0.60;;;7.80;64.40;;;;;;6243877;28;20124;-76
2020/12/25 15:05:31;;;;;;;1.10;0.63;;;7.70;64.90;;;;;;6243146;28;20320;-74
2020/12/25 15:08:32;;;;;;;4.18;0.98;;;7.60;65.30;;;;;;6242846;28;20086;-74
2020/12/25 15:11:32;;;;;;;1.05;0.68;;;7.50;65.80;;;;;;6242995;28;20213;-75
2020/12/25 15:14:33;;;;;;;0.65;0.32;;;7.50;66.00;;;;;;6243763;28;20101;-75
2020/12/25 15:17:34;;;;;;;0.68;0.55;;;7.40;66.10;;;;;;6242624;28;20327;-74
2020/12/25 15:20:35;;;;;;;0.68;0.60;;;7.40;66.20;;;;;;6243915;28;20365;-75
2020/12/25 15:23:36;;;;;;;3.20;0.68;;;7.40;65.90;;;;;;6243415;28;20034;-74
2020/12/25 15:26:37;;;;;;;2.33;0.57;;;7.30;65.90;;;;;;6243877;28;20434;-76
2020/12/25 15:29:38;;;;;;;0.90;0.30;;;7.20;65.80;;;;;;6242359;28;20025;-74
2020/12/25 15:32:39;;;;;;;0.65;0.22;;;7.20;66.10;;;;;;6243255;28;20024;-76
2020/12/25 15:35:41;;;;;;;0.88;0.45;;;7.20;66.20;;;;;;6242099;28;20037;-75
2020/12/25 15:38:42;;;;;;;0.75;0.50;;;7.20;66.00;;;;;;6242155;28;20117;-74
2020/12/25 15:41:47;;;;;;;0.22;0.22;;;7.20;65.80;;;;;;6243123;28;20359;-74
2020/12/25 15:44:48;;;;;;;0.57;0.52;;;7.20;66.00;;;;;;6242291;28;20037;-75
2020/12/25 15:47:49;;;;;;;0.20;0.20;;;7.30;65.70;;;;;;6243092;28;20021;-75
2020/12/25 15:50:50;;;;;;;1.55;0.90;;;7.30;65.20;;;;;;6241894;28;20022;-75
2020/12/25 15:53:51;;;;;;;0.90;0.60;;;7.40;65.60;;;;;;6241787;28;20037;-76
2020/12/25 15:56:52;;;;;;;1.75;0.73;;;7.50;64.60;;;;;;6242593;28;20021;-76
2020/12/25 15:59:53;;;;;;;0.65;0.57;;;7.60;64.70;;;;;;6241959;28;20362;-75
2020/12/25 16:02:54;;;;;;;0.65;0.63;;;7.60;64.30;;;;;;6242703;28;20126;-75